Nearby METAR Reports

 

KMTN - Baltimore/Martin, Maryland, USA
Distance from station: SSE 8mi, 13km
Updated: Fri, 01-Aug-2014 9:45am EDT
Overcast
Overcast
 Wind from calm
Wind: Calm
Temperature: 77°F , 25°C
Dew Point: 70°F , 21°C
Humidity: 79%
Barometer: 30.18 inHg , 1022 hPa
Clouds: Overcast
Visibility: 10 miles , 16 km
Cloud details: Overcast 20000 ft
2014/08/01 13:45 KMTN 011345Z 00000KT 10SM OVC200 25/21 A3018
KDMH - Baltimore/Dwntwn, Maryland, USA
Distance from station: SW 12mi, 19km
Updated: Fri, 01-Aug-2014 8:54am EDT

 
Temperature: 75°F , 24°C
Dew Point: 66°F , 19°C
Humidity: 74%
Barometer: 30.18 inHg , 1022 hPa
2014/08/01 12:54 KDMH 011254Z AUTO 24/19 A3018 RMK AO1 SLP218 T02440194
 
KBWI - Balto/Wash Intl, Maryland, USA
Distance from station: SSW 20mi, 33km
Updated: Fri, 01-Aug-2014 8:54am EDT
Overcast
Overcast
 Wind from SW
Wind: SW 6 mph , 9 km/h
Temperature: 75°F , 24°C
Dew Point: 66°F , 19°C
Humidity: 74%
Barometer: 30.17 inHg , 1021.7 hPa
Clouds: Overcast
Visibility: 9 miles , 14 km
Cloud details: Mostly cloudy 15000 ft
Overcast 19000 ft
2014/08/01 12:54 KBWI 011254Z 22005KT 9SM BKN150 OVC190 24/19 A3017 RMK AO2 SLP214 T02390194
KDMW - Carroll Cnty, Maryland, USA
Distance from station: WNW 30mi, 48km
Updated: Fri, 01-Aug-2014 9:40am EDT
Clear
Clear
 Wind from S
Wind: S 7 mph , 11 km/h
Temperature: 75°F , 24°C
Dew Point: 72°F , 22°C
Humidity: 89%
Barometer: 30.19 inHg , 1022.4 hPa
Clouds: Clear
Visibility: 10 miles , 16 km
2014/08/01 13:40 KDMW 011340Z AUTO 18006KT 10SM CLR 24/22 A3019 RMK AO2
 
KNAK - Annapolis/Naval, Maryland, USA
Distance from station: S 30mi, 48km
Updated: Fri, 01-Aug-2014 8:54am EDT
Clear
Clear
 Wind from varies
Wind: varies 5 mph , 7 km/h
Temperature: 75°F , 24°C
Dew Point: 66°F , 19°C
Humidity: 74%
Barometer: 30.17 inHg , 1021.7 hPa
Clouds: Clear
Visibility: 9 miles , 14 km
2014/08/01 12:54 KNAK 011254Z AUTO VRB04KT 9SM CLR 24/19 A3017 RMK AO2 SLP218 T02440189
KW29 - Stevensville, Maryland, USA
Distance from station: SSE 31mi, 50km
Updated: Fri, 01-Aug-2014 9:40am EDT

 Wind from SW
Wind: SW 3 mph , 6 km/h
Temperature: 77°F , 25°C
Dew Point: 66°F , 19°C
Humidity: 69%
Barometer: 30.17 inHg , 1021.7 hPa
Visibility: 10 miles , 16 km
2014/08/01 13:40 KW29 011340Z AUTO 23003KT 10SM 25/19 A3017 RMK AO1
 
KCGS - College Park, Maryland, USA
Distance from station: SW 38mi, 61km
Updated: Fri, 01-Aug-2014 9:40am EDT
Clear
Clear
 Wind from calm
Wind: Calm
Temperature: 77°F , 25°C
Dew Point: 68°F , 20°C
Humidity: 74%
Barometer: 30.17 inHg , 1021.7 hPa
Clouds: Clear
Visibility: 10 miles , 16 km
2014/08/01 13:40 KCGS 011340Z AUTO 00000KT 10SM CLR 25/20 A3017 RMK AO1
KGAI - Gaithersburg, Maryland, USA
Distance from station: WSW 40mi, 65km
Updated: Fri, 01-Aug-2014 9:35am EDT
Clear
Clear
 Wind from S
Wind: S 6 mph , 9 km/h
Temperature: 73°F , 23°C
Dew Point: 66°F , 19°C
Humidity: 78%
Barometer: 30.22 inHg , 1023.4 hPa
Clouds: Clear
Visibility: 10 miles , 16 km
2014/08/01 13:35 KGAI 011335Z AUTO 19005KT 10SM CLR 23/19 A3022 RMK AO1
 
KTHV - York, Pennsylvania, USA
Distance from station: NNW 40mi, 65km
Updated: Fri, 01-Aug-2014 8:53am EDT
Clear
Clear
 Wind from varies
Wind: varies 3 mph , 6 km/h
Temperature: 73°F , 23°C
Dew Point: 66°F , 19°C
Humidity: 78%
Barometer: 30.18 inHg , 1022 hPa
Clouds: Clear
Visibility: 8 miles , 13 km
2014/08/01 12:53 KTHV 011253Z AUTO VRB03KT 8SM CLR 23/19 A3018 RMK AO2 SLP218 T02330194
KFDK - Frederick, Maryland, USA
Distance from station: W 47mi, 75km
Updated: Fri, 01-Aug-2014 8:45am EDT
Clear
Clear
 Wind from calm
Wind: Calm
Temperature: 72°F , 22°C
Dew Point: 70°F , 21°C
Humidity: 94%
Barometer: 30.20 inHg , 1022.7 hPa
Clouds: Clear
Visibility: 7 miles , 11 km
2014/08/01 12:45 KFDK 011245Z 00000KT 7SM SKC 22/21 A3020
 
KESN - Easton/Newnam, Maryland, USA
Distance from station: SSE 48mi, 78km
Updated: Fri, 01-Aug-2014 9:50am EDT
Overcast
Overcast
 Wind from WSW
Wind: WSW 6 mph , 9 km/h
Temperature: 79°F , 26°C
Dew Point: 68°F , 20°C
Humidity: 70%
Barometer: 30.21 inHg , 1023 hPa
Clouds: Overcast
Visibility: 10 miles , 16 km
Cloud details: Overcast 12000 ft
2014/08/01 13:50 KESN 011350Z 25005KT 10SM OVC120 26/20 A3021
KDCA - Washington/Natl, Washington D.c., USA
Distance from station: SW 49mi, 79km
Updated: Fri, 01-Aug-2014 8:52am EDT
Overcast
Overcast
 Wind from S
Wind: S 9 mph , 15 km/h
Temperature: 77°F , 25°C
Dew Point: 68°F , 20°C
Humidity: 74%
Barometer: 30.18 inHg , 1022 hPa
Clouds: Overcast
Visibility: 10 miles , 16 km
Cloud details: Few Clouds 4000 ft
Mostly cloudy 15000 ft
Overcast 20000 ft
2014/08/01 12:52 KDCA 011252Z 19008KT 10SM FEW040 BKN150 OVC200 25/20 A3018 RMK AO2 SLP218 T02500200
 
KLNS - Lancaster, Pennsylvania, USA
Distance from station: N 49mi, 79km
Updated: Fri, 01-Aug-2014 9:44am EDT
Mostly cloudy
Mostly cloudy
 Wind from S
Wind: S 5 mph , 7 km/h
Temperature: 75°F , 24°C
Dew Point: 70°F , 21°C
Humidity: 83%
Barometer: 30.17 inHg , 1021.7 hPa
Clouds: Mostly cloudy
Visibility: 8 miles , 13 km
Cloud details: Partly cloudy 1500 ft
Mostly cloudy 11000 ft
2014/08/01 13:44 KLNS 011344Z 19004KT 8SM SCT015 BKN110 24/21 A3017 RMK AO2 T02440206
KILG - Wilmington, Delaware, USA
Distance from station: ENE 50mi, 81km
Updated: Fri, 01-Aug-2014 8:51am EDT
Clear
Clear
 Wind from varies
Wind: varies 5 mph , 7 km/h
Temperature: 75°F , 24°C
Dew Point: 70°F , 21°C
Humidity: 83%
Barometer: 30.19 inHg , 1022.4 hPa
Clouds: Clear
Visibility: 9 miles , 14 km
2014/08/01 12:51 KILG 011251Z AUTO VRB04KT 9SM CLR 24/21 A3019 RMK AO2 SLP223 T02390206